Time;durP1;ratioP1;P1;durP2;ratioP2;P2;SDS_P1;SDS_P2;PMS_P1;PMS_P2;Temp;Humidity;BMP_temperature;BMP_pressure;BME280_temperature;BME280_humidity;BME280_pressure;Samples;Min_cycle;Max_cycle;Signal;HPM_P1;HPM_P2
2022/07/09 00:00:17;;;;;;;11.55;6.00;;;;;;;-148.88;100.00;76069.72;5055215;28;20428;-78
2022/07/09 00:02:43;;;;;;;9.40;5.65;;;;;;;-148.88;100.00;76073.78;5056082;28;20090;-78
2022/07/09 00:05:08;;;;;;;8.15;6.15;;;;;;;-148.88;100.00;76081.91;5054853;28;20040;-77
2022/07/09 00:07:34;;;;;;;7.53;6.32;;;;;;;-148.88;100.00;76079.88;5055468;28;20027;-79
2022/07/09 00:09:59;;;;;;;11.68;7.00;;;;;;;-148.88;100.00;76090.03;5055019;28;20116;-77
2022/07/09 00:12:24;;;;;;;9.73;6.30;;;;;;;-148.88;100.00;76102.22;5056191;28;20025;-77
2022/07/09 00:14:50;;;;;;;8.93;6.38;;;;;;;-148.88;100.00;76092.06;5053825;28;20029;-77
2022/07/09 00:17:16;;;;;;;12.10;6.43;;;;;;;-148.88;100.00;76098.16;5054145;28;20048;-77
2022/07/09 00:19:41;;;;;;;12.23;6.43;;;;;;;-148.88;100.00;76094.09;5054230;28;20048;-77
2022/07/09 00:22:06;;;;;;;8.68;6.38;;;;;;;-148.88;100.00;76096.13;5056712;28;20033;-78
2022/07/09 00:24:32;;;;;;;9.32;6.10;;;;;;;-148.88;100.00;76096.13;5057044;28;20025;-77
2022/07/09 00:26:57;;;;;;;11.73;6.95;;;;;;;-148.88;100.00;76102.22;5057100;28;20123;-78
2022/07/09 00:29:23;;;;;;;13.38;6.75;;;;;;;-148.88;100.00;76096.13;5057019;28;20021;-78
2022/07/09 00:31:48;;;;;;;11.18;6.90;;;;;;;-148.88;100.00;76114.41;5057639;28;20398;-78
2022/07/09 00:34:13;;;;;;;12.25;7.18;;;;;;;-148.88;100.00;76118.47;5056078;28;20116;-77
2022/07/09 00:36:38;;;;;;;9.50;6.43;;;;;;;-148.88;100.00;76108.31;5056701;28;20385;-78
2022/07/09 00:39:04;;;;;;;10.00;7.22;;;;;;;-148.88;100.00;76114.41;5054835;28;20052;-77
2022/07/09 00:41:29;;;;;;;9.82;6.60;;;;;;;-148.88;100.00;76106.28;5056347;28;20031;-77
2022/07/09 00:43:55;;;;;;;14.38;7.25;;;;;;;-148.88;100.00;76108.31;5054886;28;20398;-77
2022/07/09 00:46:20;;;;;;;9.95;6.22;;;;;;;-148.88;100.00;76118.47;5055813;28;20021;-78
2022/07/09 00:48:46;;;;;;;13.70;7.35;;;;;;;-148.88;100.00;76130.69;5056230;28;20032;-77
2022/07/09 00:51:17;;;;;;;14.60;7.35;;;;;;;-148.88;100.00;76136.78;5053144;28;20029;-76
2022/07/09 00:53:42;;;;;;;12.80;7.82;;;;;;;-148.88;100.00;76138.81;5054965;28;20553;-76
2022/07/09 00:56:08;;;;;;;12.32;7.30;;;;;;;-148.88;100.00;76144.91;5053708;28;20112;-77
2022/07/09 00:58:35;;;;;;;14.82;7.53;;;;;;;-148.88;100.00;76144.91;5055078;28;20025;-77
2022/07/09 01:01:01;;;;;;;12.93;7.95;;;;;;;-148.88;100.00;76155.06;5055049;28;20079;-78
2022/07/09 01:03:26;;;;;;;11.88;7.03;;;;;;;-148.88;100.00;76136.78;5056299;28;20024;-78
2022/07/09 01:05:52;;;;;;;10.35;7.28;;;;;;;-148.88;100.00;76134.72;5055818;28;20053;-78
2022/07/09 01:08:17;;;;;;;13.23;7.28;;;;;;;-148.88;100.00;76134.72;5055695;28;20438;-78
2022/07/09 01:10:43;;;;;;;14.23;8.07;;;;;;;-148.88;100.00;76134.72;5055942;28;20075;-78
2022/07/09 01:13:08;;;;;;;11.20;7.90;;;;;;;-148.88;100.00;76134.72;5056184;28;20029;-77
2022/07/09 01:15:34;;;;;;;14.70;8.13;;;;;;;-148.88;100.00;76138.81;5055581;28;20081;-78
2022/07/09 01:18:00;;;;;;;17.27;8.73;;;;;;;-148.88;100.00;76138.81;5055809;28;20032;-77
2022/07/09 01:20:31;;;;;;;15.75;8.68;;;;;;;-148.88;100.00;76146.94;5056159;28;20511;-77
2022/07/09 01:22:58;;;;;;;15.40;8.77;;;;;;;-148.88;100.00;76151.00;5054585;28;20501;-77
2022/07/09 01:25:38;;;;;;;13.02;8.65;;;;;;;-148.88;100.00;76146.94;5056628;28;20117;-77
2022/07/09 01:28:05;;;;;;;14.98;8.85;;;;;;;-148.88;100.00;76132.72;5055054;28;20021;-77
2022/07/09 01:30:32;;;;;;;15.77;8.70;;;;;;;-148.88;100.00;76130.69;5053323;28;20063;-76
2022/07/09 01:32:57;;;;;;;18.75;8.60;;;;;;;-148.88;100.00;76122.56;5054348;28;20021;-77
2022/07/09 01:35:22;;;;;;;14.75;8.70;;;;;;;-148.88;100.00;76130.69;5054026;28;20025;-77
2022/07/09 01:37:48;;;;;;;12.63;9.05;;;;;;;-148.88;100.00;76122.56;5056042;28;20033;-78
2022/07/09 01:40:13;;;;;;;14.32;9.82;;;;;;;-148.88;100.00;76126.59;5056001;28;20020;-78
2022/07/09 01:42:39;;;;;;;17.23;9.25;;;;;;;-148.88;100.00;76122.56;5056280;28;20063;-77
2022/07/09 01:45:05;;;;;;;18.00;9.50;;;;;;;-148.88;100.00;76110.34;5055371;28;20102;-78
2022/07/09 01:47:31;;;;;;;16.23;9.98;;;;;;;-148.88;100.00;76112.41;5055547;28;20024;-78
2022/07/09 01:49:56;;;;;;;15.40;10.55;;;;;;;-148.88;100.00;76120.53;5054568;28;20032;-77
2022/07/09 01:52:21;;;;;;;16.60;9.25;;;;;;;-148.88;100.00;76124.56;5054137;28;20021;-77
2022/07/09 01:54:47;;;;;;;18.45;10.43;;;;;;;-148.88;100.00;76118.47;5055453;28;20021;-78
2022/07/09 01:57:12;;;;;;;20.00;9.90;;;;;;;-148.88;100.00;76118.47;5056019;28;20478;-77
2022/07/09 01:59:37;;;;;;;21.85;10.93;;;;;;;-148.88;100.00;76130.69;5055681;28;20163;-78
2022/07/09 02:02:03;;;;;;;21.67;10.95;;;;;;;-148.88;100.00;76118.47;5055292;28;20043;-77
2022/07/09 02:04:28;;;;;;;17.23;11.23;;;;;;;-148.88;100.00;76122.56;5054591;28;20501;-77
2022/07/09 02:06:54;;;;;;;19.17;11.27;;;;;;;-148.88;100.00;76122.56;5053462;28;20029;-76
2022/07/09 02:09:19;;;;;;;19.42;11.10;;;;;;;-148.88;100.00;76120.53;5053316;28;20092;-76
2022/07/09 02:11:44;;;;;;;19.52;11.27;;;;;;;-148.88;100.00;76118.47;5051779;28;20033;-77
2022/07/09 02:14:09;;;;;;;19.33;11.40;;;;;;;-148.88;100.00;76118.47;5053832;28;20025;-77
2022/07/09 02:16:35;;;;;;;19.20;11.82;;;;;;;-148.88;100.00;76114.41;5056194;28;20474;-77
2022/07/09 02:19:01;;;;;;;20.02;11.98;;;;;;;-148.88;100.00;76118.47;5055768;28;20025;-77
2022/07/09 02:21:26;;;;;;;19.00;11.75;;;;;;;-148.88;100.00;76134.72;5054682;28;20466;-77
2022/07/09 02:23:56;;;;;;;19.83;12.00;;;;;;;-148.88;100.00;76128.66;5055313;28;20032;-77
2022/07/09 02:26:21;;;;;;;20.52;12.32;;;;;;;-148.88;100.00;76130.69;5054588;28;20108;-78
2022/07/09 02:28:47;;;;;;;19.70;12.43;;;;;;;-148.88;100.00;76130.69;5054942;28;20125;-78
2022/07/09 02:31:12;;;;;;;23.98;12.27;;;;;;;-148.88;100.00;76132.72;5056124;28;20025;-77
2022/07/09 02:33:37;;;;;;;24.42;12.88;;;;;;;-148.88;100.00;76130.69;5054634;28;20104;-77
2022/07/09 02:36:03;;;;;;;19.25;12.77;;;;;;;-148.88;100.00;76138.81;5053701;28;20032;-78
2022/07/09 02:38:29;;;;;;;25.05;14.00;;;;;;;-148.88;100.00;76142.88;5055393;28;20025;-77
2022/07/09 02:40:54;;;;;;;20.83;13.20;;;;;;;-148.88;100.00;76142.88;5055891;28;20035;-77
2022/07/09 02:43:19;;;;;;;24.83;15.05;;;;;;;-148.88;100.00;76134.72;5053437;28;20023;-77
2022/07/09 02:45:45;;;;;;;23.83;13.88;;;;;;;-148.88;100.00;76126.59;5052794;28;20055;-76
2022/07/09 02:48:10;;;;;;;25.85;13.88;;;;;;;-148.88;100.00;76126.59;5053243;28;20060;-77
2022/07/09 02:50:35;;;;;;;18.17;13.00;;;;;;;-148.88;100.00;76118.47;5052788;28;20047;-77
2022/07/09 02:53:00;;;;;;;22.27;13.02;;;;;;;-148.88;100.00;76128.66;5054648;28;20036;-77
2022/07/09 02:55:26;;;;;;;24.95;13.80;;;;;;;-148.88;100.00;76122.56;5054813;28;20111;-77
2022/07/09 02:57:51;;;;;;;22.40;12.18;;;;;;;-148.88;100.00;76122.56;5057658;28;20033;-77
2022/07/09 03:00:16;;;;;;;22.55;12.98;;;;;;;-148.88;100.00;76130.69;5056849;28;20584;-77
2022/07/09 03:02:41;;;;;;;20.75;12.35;;;;;;;-148.88;100.00;76132.72;5057775;28;20037;-77
2022/07/09 03:05:07;;;;;;;20.10;12.23;;;;;;;-148.88;100.00;76116.44;5059191;28;20576;-77
2022/07/09 03:07:32;;;;;;;24.75;12.27;;;;;;;-148.88;100.00;76138.81;5058263;28;20028;-77
2022/07/09 03:09:58;;;;;;;20.33;11.68;;;;;;;-148.88;100.00;76134.72;5058591;28;20048;-78
2022/07/09 03:12:23;;;;;;;17.88;11.95;;;;;;;-148.88;100.00;76138.81;5058530;28;20104;-78
2022/07/09 03:14:49;;;;;;;19.95;12.25;;;;;;;-148.88;100.00;76140.84;5059301;28;20048;-77
2022/07/09 03:17:14;;;;;;;24.50;12.15;;;;;;;-148.88;100.00;76128.66;5058168;28;20074;-77
2022/07/09 03:19:39;;;;;;;20.48;11.82;;;;;;;-148.88;100.00;76134.72;5057766;28;20047;-77
2022/07/09 03:22:05;;;;;;;20.38;13.43;;;;;;;-148.88;100.00;76136.78;5056570;28;20025;-76
2022/07/09 03:24:30;;;;;;;21.58;12.48;;;;;;;-148.88;100.00;76134.72;5056949;28;20017;-76
2022/07/09 03:26:55;;;;;;;20.52;13.20;;;;;;;-148.88;100.00;76134.72;5056474;28;20441;-77
2022/07/09 03:29:20;;;;;;;22.60;13.10;;;;;;;-148.88;100.00;76142.88;5056997;28;20024;-77
2022/07/09 03:31:46;;;;;;;25.17;13.13;;;;;;;-148.88;100.00;76151.00;5056473;28;20040;-77
2022/07/09 03:34:11;;;;;;;23.70;13.23;;;;;;;-148.88;100.00;76146.94;5057044;28;20033;-77
2022/07/09 03:36:36;;;;;;;20.83;13.05;;;;;;;-148.88;100.00;76134.72;5057167;28;20362;-77
2022/07/09 03:39:02;;;;;;;25.42;13.55;;;;;;;-148.88;100.00;76122.56;5057655;28;20112;-77
2022/07/09 03:41:27;;;;;;;19.65;12.45;;;;;;;-148.88;100.00;76110.34;5057822;28;20029;-77
2022/07/09 03:43:52;;;;;;;22.23;12.85;;;;;;;-148.88;100.00;76106.28;5057775;28;20017;-77
2022/07/09 03:46:18;;;;;;;24.05;13.25;;;;;;;-148.88;100.00;76110.34;5057564;28;20108;-77
2022/07/09 03:48:43;;;;;;;17.88;12.65;;;;;;;-148.88;100.00;76110.34;5057344;28;20049;-77
2022/07/09 03:51:08;;;;;;;25.08;14.18;;;;;;;-148.88;100.00;76110.34;5058261;28;20348;-78
2022/07/09 03:53:35;;;;;;;20.15;13.07;;;;;;;-148.88;100.00;76098.16;5057204;28;20024;-77
2022/07/09 03:56:01;;;;;;;24.00;14.27;;;;;;;-148.88;100.00;76096.13;5059323;28;20098;-76
2022/07/09 03:58:26;;;;;;;27.10;15.35;;;;;;;-148.88;100.00;76092.06;5054647;28;20021;-76
2022/07/09 04:00:52;;;;;;;25.00;14.00;;;;;;;-148.88;100.00;76090.03;5055081;28;20052;-76
2022/07/09 04:03:17;;;;;;;24.90;14.68;;;;;;;-148.88;100.00;76085.97;5054367;28;20390;-76
2022/07/09 04:05:44;;;;;;;24.00;14.27;;;;;;;-148.88;100.00;76081.91;5054226;28;20021;-76
2022/07/09 04:08:10;;;;;;;27.05;14.18;;;;;;;-148.88;100.00;76073.78;5054866;28;20486;-77
2022/07/09 04:10:35;;;;;;;27.42;13.85;;;;;;;-148.88;100.00;76073.78;5054743;28;20056;-76
2022/07/09 04:13:00;;;;;;;28.48;14.45;;;;;;;-148.88;100.00;76079.88;5055216;28;20057;-76
2022/07/09 04:15:25;;;;;;;25.10;15.15;;;;;;;-148.88;100.00;76073.78;5053598;28;20028;-76
2022/07/09 04:17:51;;;;;;;29.83;15.98;;;;;;;-148.88;100.00;76073.78;5053671;28;20452;-76
2022/07/09 04:20:16;;;;;;;27.33;15.35;;;;;;;-148.88;100.00;76065.66;5054957;28;20025;-76
2022/07/09 04:22:41;;;;;;;27.13;15.85;;;;;;;-148.88;100.00;76069.72;5055126;28;20060;-76
2022/07/09 04:25:07;;;;;;;28.73;15.95;;;;;;;-148.88;100.00;76063.63;5055292;28;20017;-76
2022/07/09 04:27:35;;;;;;;25.20;15.27;;;;;;;-148.88;100.00;76063.63;5054618;28;20108;-76
2022/07/09 04:30:01;;;;;;;27.33;16.33;;;;;;;-148.88;100.00;76065.66;5053084;28;20025;-76
2022/07/09 04:32:26;;;;;;;29.85;17.02;;;;;;;-148.88;100.00;76063.63;5054914;28;20027;-76
2022/07/09 04:34:51;;;;;;;33.05;17.02;;;;;;;-148.88;100.00;76061.59;5054723;28;20029;-76
2022/07/09 04:37:17;;;;;;;31.73;17.15;;;;;;;-148.88;100.00;76049.41;5054525;28;20025;-76
2022/07/09 04:39:42;;;;;;;28.65;17.27;;;;;;;-148.88;100.00;76049.41;5054428;28;20028;-76
2022/07/09 04:42:10;;;;;;;30.77;16.90;;;;;;;-148.88;100.00;76041.28;5054228;28;20140;-76
2022/07/09 04:44:35;;;;;;;34.05;17.40;;;;;;;-148.88;100.00;76057.53;5054188;28;20024;-76
2022/07/09 04:47:01;;;;;;;34.15;17.75;;;;;;;-148.88;100.00;76063.63;5054159;28;20025;-76
2022/07/09 04:49:26;;;;;;;29.55;17.70;;;;;;;-148.88;100.00;76063.63;5054074;28;20025;-76
2022/07/09 04:51:51;;;;;;;28.45;17.55;;;;;;;-148.88;100.00;76065.66;5054210;28;20407;-76
2022/07/09 04:54:17;;;;;;;34.50;18.27;;;;;;;-148.88;100.00;76071.75;5054266;28;20561;-76
2022/07/09 04:56:42;;;;;;;34.25;19.08;;;;;;;-148.88;100.00;76067.69;5054079;28;20021;-76
2022/07/09 04:59:08;;;;;;;30.02;17.77;;;;;;;-148.88;100.00;76069.72;5053956;28;20497;-76
2022/07/09 05:01:48;;;;;;;27.13;16.63;;;;;;;-148.88;100.00;76065.66;5075338;22;20112;-84
2022/07/09 05:04:16;;;;;;;31.48;17.70;;;;;;;-148.88;100.00;76059.56;5033521;28;20491;-84
2022/07/09 05:06:42;;;;;;;26.25;15.20;;;;;;;-148.88;100.00;76053.47;5035814;28;20061;-84
2022/07/09 05:09:07;;;;;;;26.60;16.60;;;;;;;-148.88;100.00;76061.59;5053387;28;20018;-84
2022/07/09 05:11:38;;;;;;;26.98;16.05;;;;;;;-148.88;100.00;76071.75;5035888;28;20029;-83
2022/07/09 05:14:03;;;;;;;26.20;16.02;;;;;;;-148.88;100.00;76067.69;5052198;28;20468;-84
2022/07/09 05:16:28;;;;;;;28.95;15.80;;;;;;;-148.88;100.00;76057.53;5037532;28;20013;-85
2022/07/09 05:19:00;;;;;;;27.27;15.45;;;;;;;-148.88;100.00;76043.31;5035889;28;20026;-84
2022/07/09 05:21:26;;;;;;;24.45;14.90;;;;;;;-148.88;100.00;76045.34;5055028;28;20028;-84
2022/07/09 05:23:51;;;;;;;25.58;15.52;;;;;;;-148.88;100.00;76053.47;5038323;28;20025;-84
2022/07/09 05:26:16;;;;;;;22.38;15.20;;;;;;;-148.88;100.00;76055.50;5038532;28;20104;-84
2022/07/09 05:28:42;;;;;;;24.50;15.38;;;;;;;-148.88;100.00;76051.44;5036885;28;20052;-84
2022/07/09 05:31:07;;;;;;;26.27;15.98;;;;;;;-148.88;100.00;76055.50;5051513;28;20029;-83
2022/07/09 05:33:33;;;;;;;23.83;15.38;;;;;;;-148.88;100.00;76055.50;5035203;28;20491;-86
2022/07/09 05:35:58;;;;;;;27.30;15.70;;;;;;;-148.88;100.00;76065.66;5033237;28;20076;-85
2022/07/09 05:38:23;;;;;;;28.10;16.15;;;;;;;-148.88;100.00;76057.53;5033362;28;20040;-85
2022/07/09 05:40:50;;;;;;;30.30;16.25;;;;;;;-148.88;100.00;76063.63;5035600;28;20151;-86
2022/07/09 05:43:16;;;;;;;24.65;15.82;;;;;;;-148.88;100.00;76063.63;5033414;28;20060;-85
2022/07/09 05:45:44;;;;;;;24.92;15.65;;;;;;;-148.88;100.00;76041.28;5034228;28;20017;-86
2022/07/09 05:48:12;;;;;;;21.70;14.20;;;;;;;-148.88;100.00;76045.34;5051090;28;20030;-88
2022/07/09 05:50:40;;;;;;;28.55;14.68;;;;;;;-148.88;100.00;76041.28;5033929;28;20029;-87
2022/07/09 05:53:09;;;;;;;20.50;12.63;;;;;;;-148.88;100.00;76025.03;5034282;28;20116;-88
2022/07/09 05:55:39;;;;;;;24.42;12.23;;;;;;;-148.88;100.00;76018.94;5033663;28;20064;-88
2022/07/09 05:58:19;;;;;;;19.30;12.52;;;;;;;-148.88;100.00;76012.84;5035717;28;20120;-87
2022/07/09 06:00:56;;;;;;;21.23;12.27;;;;;;;-148.88;100.00;76025.03;5033724;28;20035;-87
2022/07/09 06:03:24;;;;;;;16.35;11.02;;;;;;;-148.88;100.00;76020.97;5034122;28;20032;-87
2022/07/09 06:05:50;;;;;;;19.38;10.52;;;;;;;-148.88;100.00;76031.13;5034985;28;20041;-85
2022/07/09 06:08:15;;;;;;;19.67;10.85;;;;;;;-148.88;100.00;76029.09;5049327;28;20110;-89
2022/07/09 06:10:51;;;;;;;17.58;10.60;;;;;;;-148.88;100.00;76033.16;5049966;28;20510;-86
2022/07/09 06:13:16;;;;;;;19.48;11.07;;;;;;;-148.88;100.00;76031.13;5033861;28;20100;-88
2022/07/09 06:15:49;;;;;;;19.55;11.07;;;;;;;-148.88;100.00;76033.16;5049954;28;20027;-88
2022/07/09 06:18:15;;;;;;;18.42;10.70;;;;;;;-148.88;100.00;76020.97;5033569;28;20037;-87
2022/07/09 06:20:40;;;;;;;17.27;9.55;;;;;;;-148.88;100.00;76033.16;5036489;28;20029;-88
2022/07/09 06:23:06;;;;;;;15.30;8.93;;;;;;;-148.88;100.00;76004.72;5052271;28;20026;-87
2022/07/09 06:25:40;;;;;;;16.58;9.80;;;;;;;-148.88;100.00;76012.84;5034454;28;20044;-88
2022/07/09 06:28:08;;;;;;;19.10;10.27;;;;;;;-148.88;100.00;76008.78;5034915;28;20479;-87
2022/07/09 06:30:46;;;;;;;18.20;10.20;;;;;;;-148.88;100.00;76012.84;5034257;28;20025;-86
2022/07/09 06:33:11;;;;;;;15.70;10.40;;;;;;;-148.88;100.00;76000.66;5035260;28;20075;-87
2022/07/09 06:35:42;;;;;;;16.00;10.18;;;;;;;-148.88;100.00;75996.59;5033770;28;20025;-86
2022/07/09 06:38:18;;;;;;;18.38;11.52;;;;;;;-148.88;100.00;75982.38;5033332;28;20037;-87
2022/07/09 06:40:44;;;;;;;17.45;10.70;;;;;;;-148.88;100.00;75964.09;5033074;28;20424;-87
2022/07/09 06:43:12;;;;;;;20.80;10.05;;;;;;;-148.88;100.00;75937.69;5033944;28;20052;-90
2022/07/09 06:45:53;;;;;;;15.20;9.23;;;;;;;-148.88;100.00;75941.75;5032823;28;20128;-86
2022/07/09 06:48:18;;;;;;;13.55;8.48;;;;;;;-148.88;99.02;75921.44;5034212;28;20032;-87
2022/07/09 06:50:44;;;;;;;13.23;8.48;;;;;;;-148.88;98.18;75929.56;5050381;28;20030;-87
2022/07/09 06:53:18;;;;;;;13.50;7.88;;;;;;;-148.88;98.72;75923.47;5033471;28;20032;-86
2022/07/09 06:55:44;;;;;;;12.88;7.72;;;;;;;-148.88;98.53;75903.16;5032644;28;20033;-86
2022/07/09 06:58:12;;;;;;;9.52;7.10;;;;;;;-148.88;97.55;75911.28;5032635;28;20025;-87
2022/07/09 07:00:37;;;;;;;9.43;6.50;;;;;;;-148.88;95.88;75903.16;5032085;28;20029;-87
2022/07/09 07:03:03;;;;;;;10.23;6.60;;;;;;;-148.88;96.06;75890.97;5033488;28;20442;-89
2022/07/09 07:05:31;;;;;;;10.00;5.68;;;;;;;-148.88;95.47;75893.00;5034045;28;20024;-89
2022/07/09 07:08:11;;;;;;;8.65;5.63;;;;;;;-148.88;95.96;75884.88;5033943;28;20387;-87
2022/07/09 07:10:37;;;;;;;9.52;5.93;;;;;;;-148.88;95.73;75862.53;5034339;28;20087;-89
2022/07/09 07:13:09;;;;;;;11.77;6.20;;;;;;;-148.88;95.06;75870.66;5032561;28;20029;-89
2022/07/09 07:15:37;;;;;;;10.07;5.65;;;;;;;-148.88;94.98;75862.53;5033923;28;20380;-88
2022/07/09 07:18:06;;;;;;;10.38;4.70;;;;;;;-148.88;93.07;75858.47;5033733;28;20068;-87
2022/07/09 07:20:39;;;;;;;8.25;4.70;;;;;;;-148.88;92.51;75850.34;5047814;28;20056;-88
2022/07/09 07:23:07;;;;;;;7.82;4.50;;;;;;;-148.88;92.47;75848.31;5032734;28;20091;-88
2022/07/09 07:25:39;;;;;;;7.20;4.10;;;;;;;-148.88;92.29;75834.09;5031800;28;20029;-89
2022/07/09 07:28:07;;;;;;;9.15;3.80;;;;;;;-148.88;90.30;75834.09;5032350;28;20017;-89
2022/07/09 07:30:39;;;;;;;5.50;3.42;;;;;;;-148.88;89.98;75819.88;5034407;28;20041;-89
2022/07/09 07:33:11;;;;;;;5.00;3.53;;;;;;;-148.88;88.67;75801.59;5032253;28;20123;-88
2022/07/09 07:35:39;;;;;;;7.78;3.78;;;;;;;-148.88;90.10;75765.03;5032301;28;20127;-87
2022/07/09 07:38:04;;;;;;;6.05;3.25;;;;;;;-148.88;87.47;75773.16;5048856;28;20120;-87
2022/07/09 07:40:30;;;;;;;4.93;2.85;;;;;;;-148.88;87.83;75724.41;5033125;28;20357;-89
2022/07/09 07:42:55;;;;;;;5.40;3.13;;;;;;;-148.88;83.27;75714.25;5032906;28;20025;-87
2022/07/09 07:45:21;;;;;;;5.68;3.33;;;;;;;-148.88;84.28;75726.44;5036541;28;20021;-87
2022/07/09 07:47:49;;;;;;;6.50;3.35;;;;;;;-148.88;84.63;75720.34;5035556;28;20377;-87
2022/07/09 07:50:15;;;;;;;5.35;3.65;;;;;;;-148.88;84.48;75708.16;5035696;28;20079;-87
2022/07/09 07:52:43;;;;;;;5.28;3.30;;;;;;;-148.88;83.94;75716.28;5036610;28;20025;-85
2022/07/09 07:55:15;;;;;;;6.50;2.33;;;;;;;-148.88;82.52;75716.28;5037022;28;20079;-88
2022/07/09 07:57:54;;;;;;;3.50;2.03;;;;;;;-148.88;83.09;75732.53;5034904;28;20041;-87
2022/07/09 08:00:25;;;;;;;3.78;2.53;;;;;;;-148.88;84.07;75689.88;5035210;28;20088;-86
2022/07/09 08:03:34;;;;;;;;;;;;;;;;;;;;;
2022/07/09 08:06:07;;;;;;;3.35;2.13;;;;;;;-148.88;81.86;75677.69;5036558;28;20047;-87
2022/07/09 08:08:44;;;;;;;4.13;2.22;;;;;;;-148.88;80.28;75673.63;5035552;28;20067;-86
2022/07/09 08:11:10;;;;;;;5.93;2.25;;;;;;;-148.88;80.74;75643.16;5036537;28;20039;-86
2022/07/09 08:13:56;;;;;;;5.72;2.20;;;;;;;-148.88;81.45;75647.22;5034248;28;20033;-84
2022/07/09 08:16:25;;;;;;;2.97;1.90;;;;;;;-148.88;78.93;75641.13;5017674;28;20077;-85
2022/07/09 08:18:50;;;;;;;5.70;2.17;;;;;;;-148.88;80.79;75639.09;5035162;28;20029;-85
2022/07/09 08:21:18;;;;;;;4.13;2.08;;;;;;;-148.88;79.56;75643.16;5036173;28;20091;-86
2022/07/09 08:23:56;;;;;;;3.42;2.08;;;;;;;-148.88;79.34;75630.97;5034596;28;20032;-86
2022/07/09 08:26:33;;;;;;;5.40;2.00;;;;;;;-148.88;80.08;75635.03;5035513;28;20021;-85
2022/07/09 08:29:10;;;;;;;5.80;2.10;;;;;;;-148.88;79.84;75643.16;5035211;28;20079;-85
2022/07/09 08:31:39;;;;;;;3.80;2.00;;;;;;;-148.88;81.03;75649.25;5034503;28;20030;-86
2022/07/09 08:34:04;;;;;;;4.63;2.05;;;;;;;-148.88;81.21;75661.44;5034528;28;20048;-86
2022/07/09 08:36:29;;;;;;;2.80;2.10;;;;;;;-148.88;80.18;75651.28;5034535;28;20479;-87
2022/07/09 08:38:55;;;;;;;4.68;2.40;;;;;;;-148.88;80.09;75643.16;5034451;28;20488;-86
2022/07/09 08:41:23;;;;;;;4.47;1.95;;;;;;;-148.88;79.73;75643.16;5050910;28;20124;-86
2022/07/09 08:43:53;;;;;;;4.50;2.25;;;;;;;-148.88;79.77;75649.25;5034660;28;20028;-86
2022/07/09 08:46:19;;;;;;;4.18;2.30;;;;;;;-148.88;79.86;75647.22;5041121;28;20547;-85
2022/07/09 08:48:49;;;;;;;2.80;1.85;;;;;;;-148.88;81.22;75626.91;5034130;28;20033;-86
2022/07/09 08:51:14;;;;;;;3.97;2.00;;;;;;;-148.88;79.77;75622.84;5034183;28;20083;-86
2022/07/09 08:53:46;;;;;;;4.43;2.28;;;;;;;-148.88;79.60;75639.09;5033982;28;20029;-86
2022/07/09 08:56:12;;;;;;;4.15;2.05;;;;;;;-148.88;79.93;75643.16;5034117;28;20021;-86
2022/07/09 08:58:38;;;;;;;4.90;1.85;;;;;;;-148.88;80.57;75641.13;5034085;28;20038;-86
2022/07/09 09:01:15;;;;;;;4.68;1.95;;;;;;;-148.88;80.29;75661.44;5034232;28;20025;-86
2022/07/09 09:03:49;;;;;;;2.85;1.65;;;;;;;-148.88;80.92;75649.25;5050559;28;20029;-86
2022/07/09 09:06:15;;;;;;;3.47;2.05;;;;;;;-148.88;79.79;75651.28;5033888;28;20029;-86
2022/07/09 09:08:46;;;;;;;2.95;1.67;;;;;;;-148.88;79.58;75626.91;5050735;28;20026;-86
2022/07/09 09:11:26;;;;;;;3.35;1.80;;;;;;;-148.88;79.35;75618.78;5033529;28;20040;-86
2022/07/09 09:13:53;;;;;;;4.45;2.00;;;;;;;-148.88;80.00;75622.84;5033719;28;20484;-86
2022/07/09 09:16:39;;;;;;;3.42;1.75;;;;;;;-148.88;78.60;75618.78;5033968;28;20108;-85
2022/07/09 09:19:08;;;;;;;4.30;2.00;;;;;;;-148.88;79.01;75618.78;5019721;28;20411;-86
2022/07/09 09:21:47;;;;;;;2.75;1.88;;;;;;;-148.88;78.94;75614.72;5033557;28;20025;-87
2022/07/09 09:24:12;;;;;;;3.90;2.00;;;;;;;-148.88;78.94;75614.72;5033864;28;20164;-83
2022/07/09 09:26:38;;;;;;;3.25;1.98;;;;;;;-148.88;79.49;75626.91;5032659;28;20064;-85
2022/07/09 09:29:06;;;;;;;3.88;2.35;;;;;;;-148.88;78.89;75630.97;5034495;28;20019;-84
2022/07/09 09:31:50;;;;;;;3.78;2.35;;;;;;;-148.88;78.12;75643.16;5033914;28;20415;-87
2022/07/09 09:34:16;;;;;;;3.40;1.92;;;;;;;-148.88;78.97;75633.00;5034893;28;20029;-87
2022/07/09 09:37:00;;;;;;;5.63;1.92;;;;;;;-148.88;78.60;75620.81;5035173;28;20022;-85
2022/07/09 09:39:28;;;;;;;5.15;1.90;;;;;;;-148.88;78.62;75626.91;5051667;28;20025;-86
2022/07/09 09:42:04;;;;;;;4.85;2.20;;;;;;;-148.88;78.55;75641.13;5034212;28;20487;-85
2022/07/09 09:44:42;;;;;;;4.68;2.22;;;;;;;-148.88;78.67;75663.47;5051606;28;20033;-85
2022/07/09 09:47:13;;;;;;;4.35;2.35;;;;;;;-148.88;79.08;75651.28;5034974;28;20037;-86
2022/07/09 09:49:59;;;;;;;3.08;2.00;;;;;;;-148.88;79.14;75628.94;5035590;28;20069;-86
2022/07/09 09:52:26;;;;;;;3.65;2.00;;;;;;;-148.88;78.50;75626.91;5053342;28;20017;-86
2022/07/09 09:54:55;;;;;;;6.03;2.10;;;;;;;-148.88;78.87;75622.84;5037514;28;20025;-85
2022/07/09 09:57:27;;;;;;;8.38;2.05;;;;;;;-148.88;77.85;75624.88;5034049;28;20025;-86
2022/07/09 09:59:53;;;;;;;4.47;2.25;;;;;;;-148.88;77.59;75618.78;5033932;28;20029;-86
2022/07/09 10:02:29;;;;;;;3.60;2.00;;;;;;;-148.88;78.33;75600.50;5033268;28;20048;-86
2022/07/09 10:05:15;;;;;;;4.35;2.10;;;;;;;-148.88;78.88;75582.22;5032847;28;20063;-86
2022/07/09 10:07:46;;;;;;;6.20;2.60;;;;;;;-148.88;78.71;75541.63;5049186;28;20108;-87
2022/07/09 10:10:25;;;;;;;5.20;2.25;;;;;;;-148.88;76.05;75507.09;5033235;28;20480;-85
2022/07/09 10:12:50;;;;;;;4.60;2.22;;;;;;;-148.88;76.25;75490.84;5034156;28;20219;-85
2022/07/09 10:15:22;;;;;;;3.35;1.80;;;;;;;-148.88;73.99;75523.34;5048956;28;20468;-85
2022/07/09 10:17:47;;;;;;;5.70;2.17;;;;;;;-148.88;75.95;75521.31;5033030;28;20454;-86
2022/07/09 10:20:37;;;;;;;5.10;1.95;;;;;;;-148.88;74.35;75452.25;5032325;28;20539;-86
2022/07/09 10:23:05;;;;;;;3.22;1.98;;;;;;;-148.88;72.87;75411.63;5032149;28;20034;-86
2022/07/09 10:25:52;;;;;;;5.50;2.33;;;;;;;-148.88;69.49;75383.19;5032594;28;20384;-86
2022/07/09 10:28:40;;;;;;;4.00;1.77;;;;;;;-148.88;67.97;75338.50;5049486;28;20025;-86
2022/07/09 10:31:20;;;;;;;5.22;1.63;;;;;;;-148.88;67.04;75326.31;5033581;28;20092;-86
2022/07/09 10:34:06;;;;;;;3.97;1.65;;;;;;;-148.88;67.01;75289.75;5032224;28;20059;-86
2022/07/09 10:36:37;;;;;;;3.55;1.25;;;;;;;-148.88;64.04;75293.81;5032990;28;20036;-86
2022/07/09 10:39:17;;;;;;;3.90;1.52;;;;;;;-148.88;65.54;75322.25;5032247;28;20067;-87
2022/07/09 10:41:57;;;;;;;3.13;1.35;;;;;;;-148.88;65.09;75277.59;5032884;28;20067;-85
2022/07/09 10:44:41;;;;;;;2.97;1.30;;;;;;;-148.88;63.56;75212.59;5033397;28;20022;-86
2022/07/09 10:47:07;;;;;;;3.20;1.30;;;;;;;-148.88;59.02;75163.84;5034124;28;20033;-86
2022/07/09 10:49:49;;;;;;;3.10;1.30;;;;;;;-148.88;60.52;75147.59;5033747;28;20029;-83
2022/07/09 10:55:16;;;;;;;3.25;1.40;;;;;;;-148.88;61.19;75206.50;5033867;28;20026;-87
2022/07/09 10:57:41;;;;;;;2.90;1.13;;;;;;;-148.88;61.34;75188.22;5032857;28;20044;-87
2022/07/09 11:00:14;;;;;;;3.88;1.40;;;;;;;-148.88;63.55;75178.06;5033747;28;20104;-85
2022/07/09 11:02:57;;;;;;;3.17;1.38;;;;;;;-148.88;60.29;75137.44;5061820;22;20049;-85
2022/07/09 11:05:24;;;;;;;2.03;1.23;;;;;;;-148.88;59.71;75180.09;5053892;28;20040;-83
2022/07/09 11:08:09;;;;;;;4.10;1.48;;;;;;;-148.88;60.50;75236.97;5053203;28;20037;-84
2022/07/09 11:14:03;;;;;;;3.88;1.35;;;;;;;-148.88;63.35;75334.44;5054276;28;20043;-83
2022/07/09 11:16:28;;;;;;;3.00;1.80;;;;;;;-148.88;63.80;75322.25;5054686;28;20045;-84